createdAt,value
2023-01-19T00:01:38.620Z,13.07
2023-01-19T00:04:06.757Z,13.47
2023-01-19T00:06:34.866Z,14.30
2023-01-19T00:09:03.003Z,15.13
2023-01-19T00:11:30.932Z,13.83
2023-01-19T00:13:59.090Z,14.80
2023-01-19T00:16:28.757Z,12.63
2023-01-19T00:18:56.851Z,15.77
2023-01-19T00:21:24.902Z,14.87
2023-01-19T00:23:53.016Z,17.20
2023-01-19T00:26:23.112Z,14.27
2023-01-19T00:28:51.522Z,15.60
2023-01-19T00:31:21.717Z,13.93
2023-01-19T00:33:52.782Z,13.27
2023-01-19T00:36:21.056Z,16.23
2023-01-19T00:38:49.065Z,14.20
2023-01-19T00:41:17.369Z,14.50
2023-01-19T00:43:44.919Z,11.80
2023-01-19T00:46:13.107Z,12.27
2023-01-19T00:48:41.099Z,12.17
2023-01-19T00:51:10.489Z,15.23
2023-01-19T00:53:38.483Z,13.10
2023-01-19T00:56:07.290Z,13.60
2023-01-19T00:58:35.339Z,13.57
2023-01-19T01:01:04.982Z,14.43
2023-01-19T01:03:33.478Z,16.23
2023-01-19T01:06:01.489Z,13.57
2023-01-19T01:08:31.365Z,14.67
2023-01-19T01:10:59.462Z,13.53
2023-01-19T01:13:29.268Z,13.30
2023-01-19T01:15:59.155Z,15.07
2023-01-19T01:18:27.283Z,12.43
2023-01-19T01:21:02.082Z,13.93
2023-01-19T01:23:31.711Z,16.13
2023-01-19T01:25:59.868Z,13.43
2023-01-19T01:28:28.135Z,15.40
2023-01-19T01:30:57.556Z,14.83
2023-01-19T01:33:41.189Z,13.27
2023-01-19T01:36:10.520Z,15.07
2023-01-19T01:38:40.068Z,14.70
2023-01-19T01:41:08.791Z,13.37
2023-01-19T01:43:48.532Z,12.73
2023-01-19T01:46:18.060Z,16.00
2023-01-19T01:48:50.974Z,12.30
2023-01-19T01:51:26.294Z,13.60
2023-01-19T01:54:14.340Z,16.00
2023-01-19T01:56:45.182Z,14.57
2023-01-19T01:59:25.941Z,15.43
2023-01-19T02:02:13.066Z,14.47
2023-01-19T02:04:45.055Z,17.80
2023-01-19T02:07:33.501Z,15.10
2023-01-19T02:10:20.423Z,15.60
2023-01-19T02:13:06.286Z,14.83
2023-01-19T02:15:34.502Z,14.90
2023-01-19T02:18:02.552Z,16.00
2023-01-19T02:20:33.077Z,13.60
2023-01-19T02:23:04.532Z,15.43
2023-01-19T02:25:34.437Z,12.50
2023-01-19T02:28:02.585Z,15.63
2023-01-19T02:30:32.989Z,15.40
2023-01-19T02:33:01.351Z,16.30
2023-01-19T02:35:29.732Z,16.60
2023-01-19T02:37:59.084Z,14.77
2023-01-19T02:40:29.219Z,15.07
2023-01-19T02:43:01.483Z,16.47
2023-01-19T02:45:30.004Z,14.43
2023-01-19T02:47:57.977Z,14.80
2023-01-19T02:50:38.817Z,14.63
2023-01-19T02:53:18.804Z,16.70
2023-01-19T02:55:54.600Z,16.20
2023-01-19T02:58:34.200Z,14.83
2023-01-19T03:01:10.924Z,16.27
2023-01-19T03:03:48.692Z,16.47
2023-01-19T03:06:28.694Z,20.27
2023-01-19T03:09:03.184Z,15.37
2023-01-19T03:11:40.165Z,15.57
2023-01-19T03:14:13.838Z,15.10
2023-01-19T03:16:47.501Z,15.47
2023-01-19T03:19:20.761Z,16.20
2023-01-19T03:21:52.867Z,15.00
2023-01-19T03:24:24.966Z,18.37
2023-01-19T03:26:58.951Z,13.53
2023-01-19T03:29:31.446Z,13.20
2023-01-19T03:32:04.257Z,13.17
2023-01-19T03:34:32.623Z,15.00
2023-01-19T03:37:04.812Z,13.40
2023-01-19T03:39:33.213Z,15.77
2023-01-19T03:42:04.274Z,14.43
2023-01-19T03:44:38.653Z,13.27
2023-01-19T03:47:08.892Z,14.83
2023-01-19T03:49:38.954Z,15.03
2023-01-19T03:52:07.494Z,15.77
2023-01-19T03:54:35.738Z,16.97
2023-01-19T03:57:03.821Z,18.93
2023-01-19T03:59:33.384Z,18.00
2023-01-19T04:02:01.982Z,15.70
2023-01-19T04:04:29.988Z,18.60
2023-01-19T04:06:59.067Z,18.47
2023-01-19T04:09:27.278Z,18.60
2023-01-19T04:11:55.952Z,18.30
2023-01-19T04:14:24.263Z,22.73
2023-01-19T04:16:53.763Z,19.63
2023-01-19T04:19:21.794Z,19.17
2023-01-19T04:21:50.815Z,16.93
2023-01-19T04:24:18.911Z,21.77
2023-01-19T04:26:47.036Z,19.20
2023-01-19T04:29:15.291Z,25.57
2023-01-19T04:31:43.262Z,20.80
2023-01-19T04:34:12.776Z,21.87
2023-01-19T04:36:40.810Z,22.30
2023-01-19T04:39:10.525Z,19.60
2023-01-19T04:41:38.718Z,20.67
2023-01-19T04:44:07.310Z,22.37
2023-01-19T04:46:35.403Z,19.37
2023-01-19T04:49:04.011Z,22.43
2023-01-19T04:51:34.424Z,21.17
2023-01-19T04:54:05.022Z,23.10
2023-01-19T04:56:33.466Z,23.70
2023-01-19T04:59:01.711Z,27.40
2023-01-19T05:01:30.011Z,28.17
2023-01-19T05:04:00.074Z,25.10
2023-01-19T05:06:28.095Z,24.80
2023-01-19T05:08:57.493Z,24.77
2023-01-19T05:11:25.698Z,24.97
2023-01-19T05:13:53.945Z,23.67
2023-01-19T05:16:22.103Z,26.20
2023-01-19T05:18:50.135Z,26.87
2023-01-19T05:21:18.285Z,20.67
2023-01-19T05:23:46.323Z,20.80
2023-01-19T05:26:16.093Z,15.47
2023-01-19T05:28:44.237Z,17.93
2023-01-19T05:31:12.523Z,16.17
2023-01-19T05:33:41.219Z,16.43
2023-01-19T05:36:09.597Z,14.80
2023-01-19T05:38:37.781Z,15.67
2023-01-19T05:41:06.081Z,16.70
2023-01-19T05:43:35.729Z,13.73
2023-01-19T05:46:05.623Z,17.57
2023-01-19T05:48:33.937Z,15.93
2023-01-19T05:51:02.655Z,13.90
2023-01-19T05:53:30.764Z,14.77
2023-01-19T05:56:02.615Z,13.20
2023-01-19T05:58:30.684Z,13.90
2023-01-19T06:01:05.487Z,13.03
2023-01-19T06:03:33.796Z,11.37
2023-01-19T06:06:02.717Z,12.30
2023-01-19T06:08:31.184Z,11.93
2023-01-19T06:10:59.383Z,13.80
2023-01-19T06:13:27.511Z,11.83
2023-01-19T06:16:01.941Z,9.27
2023-01-19T06:18:30.521Z,8.87
2023-01-19T06:20:59.608Z,9.53
2023-01-19T06:23:28.099Z,10.93
2023-01-19T06:25:56.192Z,10.37
2023-01-19T06:28:25.357Z,8.63
2023-01-19T06:30:56.562Z,9.60
2023-01-19T06:33:28.905Z,8.83
2023-01-19T06:35:57.205Z,11.13
2023-01-19T06:38:25.320Z,8.67
2023-01-19T06:40:55.088Z,9.70
2023-01-19T06:43:23.527Z,8.13
2023-01-19T06:45:51.805Z,9.63
2023-01-19T06:48:20.740Z,9.73
2023-01-19T06:50:50.639Z,7.83
2023-01-19T06:53:20.848Z,7.40
2023-01-19T06:55:48.969Z,8.37
2023-01-19T06:58:17.397Z,11.17
2023-01-19T07:00:45.422Z,7.63
2023-01-19T07:03:20.557Z,9.83
2023-01-19T07:05:52.918Z,9.43
2023-01-19T07:08:21.104Z,8.13
2023-01-19T07:11:25.125Z,9.40
2023-01-19T07:13:39.471Z,10.83
2023-01-19T07:16:09.205Z,11.50
2023-01-19T07:18:37.450Z,10.83
2023-01-19T07:21:08.012Z,13.97
2023-01-19T07:23:38.311Z,12.13
2023-01-19T07:26:06.726Z,12.67
2023-01-19T07:28:34.760Z,10.90
2023-01-19T07:31:03.051Z,12.60
2023-01-19T07:33:31.157Z,13.30
2023-01-19T07:35:59.221Z,11.50
2023-01-19T07:38:28.855Z,11.53
2023-01-19T07:41:01.845Z,12.77
2023-01-19T07:43:29.953Z,14.33
2023-01-19T07:45:58.251Z,14.53
2023-01-19T07:48:26.763Z,14.47
2023-01-19T07:50:54.919Z,15.20
2023-01-19T07:53:23.008Z,14.93
2023-01-19T07:55:57.615Z,15.07
2023-01-19T07:58:26.565Z,17.00
2023-01-19T08:00:54.760Z,14.33
2023-01-19T08:03:22.858Z,17.43
2023-01-19T08:05:52.857Z,16.87
2023-01-19T08:08:21.159Z,16.37
2023-01-19T08:10:51.310Z,17.60
2023-01-19T08:13:20.763Z,17.00
2023-01-19T08:15:51.982Z,17.37
2023-01-19T08:18:20.183Z,18.83
2023-01-19T08:20:48.290Z,20.07
2023-01-19T08:23:18.195Z,19.83
2023-01-19T08:25:47.223Z,18.50
2023-01-19T08:28:17.062Z,16.50
2023-01-19T08:30:53.883Z,15.27
2023-01-19T08:33:23.223Z,15.37
2023-01-19T08:35:53.389Z,23.00
2023-01-19T08:38:21.699Z,16.93
2023-01-19T08:40:50.179Z,16.10
2023-01-19T08:43:19.215Z,14.17
2023-01-19T08:45:52.967Z,17.30
2023-01-19T08:48:23.560Z,13.27
2023-01-19T08:50:52.959Z,14.37
2023-01-19T08:53:23.742Z,15.83
2023-01-19T08:55:57.587Z,17.90
2023-01-19T08:58:25.815Z,15.47
2023-01-19T09:00:56.096Z,16.10
2023-01-19T09:03:24.411Z,12.17
2023-01-19T09:05:52.491Z,12.53
2023-01-19T09:08:20.613Z,14.33
2023-01-19T09:10:50.725Z,13.53
2023-01-19T09:13:19.988Z,15.93
2023-01-19T09:15:48.189Z,16.40
2023-01-19T09:18:19.270Z,16.30
2023-01-19T09:20:49.165Z,15.47
2023-01-19T09:23:19.568Z,15.23
2023-01-19T09:25:49.106Z,13.20
2023-01-19T09:28:18.703Z,15.20
2023-01-19T09:30:46.984Z,17.03
2023-01-19T09:33:18.650Z,16.50
2023-01-19T09:35:48.351Z,18.57
2023-01-19T09:38:17.640Z,21.33
2023-01-19T09:40:48.872Z,20.73
2023-01-19T09:43:25.810Z,19.60
2023-01-19T09:45:59.077Z,22.17
2023-01-19T09:48:47.963Z,20.10
2023-01-19T09:51:19.729Z,20.47
2023-01-19T09:54:04.481Z,20.27
2023-01-19T09:56:33.756Z,20.40
2023-01-19T09:59:02.473Z,19.50
2023-01-19T10:02:01.639Z,22.33
2023-01-19T10:04:35.613Z,24.70
2023-01-19T10:07:22.914Z,23.83
2023-01-19T10:10:04.539Z,31.00
2023-01-19T10:12:41.410Z,23.83
2023-01-19T10:15:20.492Z,28.40
2023-01-19T10:18:00.313Z,24.97
2023-01-19T10:20:36.500Z,24.37
2023-01-19T10:23:07.241Z,31.50
2023-01-19T10:25:35.510Z,29.50
2023-01-19T10:28:04.733Z,30.13
2023-01-19T10:30:36.312Z,28.17
2023-01-19T10:33:04.741Z,30.67
2023-01-19T10:35:34.395Z,29.40
2023-01-19T10:38:03.664Z,32.90
2023-01-19T10:40:36.638Z,31.90
2023-01-19T10:43:42.809Z,29.57
2023-01-19T10:46:22.959Z,31.87
2023-01-19T10:48:53.056Z,24.80
2023-01-19T10:51:23.366Z,31.43
2023-01-19T10:53:58.141Z,36.37
2023-01-19T10:56:30.789Z,34.43
2023-01-19T10:59:01.387Z,30.00
2023-01-19T11:01:31.476Z,29.10
2023-01-19T11:04:05.556Z,31.60
2023-01-19T11:06:35.781Z,33.87
2023-01-19T11:09:18.628Z,36.10
2023-01-19T11:11:52.469Z,32.67
2023-01-19T11:14:23.171Z,27.67
2023-01-19T11:16:55.129Z,31.20
2023-01-19T11:19:30.282Z,33.33
2023-01-19T11:22:21.896Z,33.47
2023-01-19T11:24:50.878Z,35.70
2023-01-19T11:27:21.288Z,33.93
2023-01-19T11:29:51.932Z,33.90
2023-01-19T11:32:23.133Z,33.33
2023-01-19T11:34:51.720Z,35.57
2023-01-19T11:37:34.599Z,29.87
2023-01-19T11:40:06.065Z,31.60
2023-01-19T11:42:37.464Z,31.90
2023-01-19T11:45:12.309Z,35.90
2023-01-19T11:47:43.473Z,37.70
2023-01-19T11:50:22.397Z,29.83
2023-01-19T11:52:56.683Z,41.13
2023-01-19T11:55:34.188Z,38.07
2023-01-19T11:58:04.882Z,30.77
2023-01-19T12:00:38.307Z,38.87
2023-01-19T12:03:15.629Z,37.90
2023-01-19T12:05:51.377Z,35.50
2023-01-19T12:08:25.330Z,33.93
2023-01-19T12:10:56.847Z,31.20
2023-01-19T12:13:27.094Z,34.47
2023-01-19T12:15:59.107Z,38.47
2023-01-19T12:18:31.099Z,31.63
2023-01-19T12:21:01.341Z,29.07
2023-01-19T12:23:44.749Z,29.83
2023-01-19T12:26:38.561Z,34.93
2023-01-19T12:29:12.917Z,29.73
2023-01-19T12:31:43.133Z,30.27
2023-01-19T12:34:37.989Z,29.70
2023-01-19T12:37:08.311Z,32.93
2023-01-19T12:39:49.414Z,30.17
2023-01-19T12:42:21.231Z,32.97
2023-01-19T12:44:49.893Z,35.77
2023-01-19T12:47:24.376Z,31.10
2023-01-19T12:49:55.032Z,29.60
2023-01-19T12:52:33.507Z,27.67
2023-01-19T12:55:18.476Z,35.63
2023-01-19T12:57:53.207Z,34.67
2023-01-19T13:00:33.164Z,40.73
2023-01-19T13:03:02.559Z,32.07
2023-01-19T13:05:50.041Z,34.67
2023-01-19T13:08:23.836Z,28.60
2023-01-19T13:23:26.535Z,27.20
2023-01-19T13:26:06.557Z,24.70
2023-01-19T13:28:41.722Z,23.40
2023-01-19T13:31:11.231Z,31.60
2023-01-19T13:33:46.893Z,22.60
2023-01-19T13:36:23.306Z,27.20
2023-01-19T13:38:53.661Z,22.40
2023-01-19T13:41:24.368Z,20.77
2023-01-19T13:44:00.037Z,22.73
2023-01-19T13:46:29.837Z,23.27
2023-01-19T13:49:01.132Z,23.63
2023-01-19T13:51:29.151Z,24.67
2023-01-19T13:54:01.619Z,22.30
2023-01-19T13:56:30.119Z,26.40
2023-01-19T13:59:05.131Z,26.10
2023-01-19T14:01:33.776Z,27.73
2023-01-19T14:04:02.003Z,21.17
2023-01-19T14:06:35.157Z,22.67
2023-01-19T14:09:25.745Z,23.27
2023-01-19T14:12:13.980Z,23.83
2023-01-19T14:14:43.089Z,26.70
2023-01-19T14:17:23.395Z,22.10
2023-01-19T14:19:53.127Z,25.37
2023-01-19T14:22:21.303Z,27.20
2023-01-19T14:24:50.745Z,26.97
2023-01-19T14:27:22.886Z,27.57
2023-01-19T14:29:53.923Z,29.50
2023-01-19T14:32:24.125Z,29.43
2023-01-19T14:34:54.961Z,30.17
2023-01-19T14:37:26.675Z,28.43
2023-01-19T14:40:01.346Z,26.17
2023-01-19T14:42:32.817Z,27.60
2023-01-19T14:45:02.818Z,27.33
2023-01-19T14:47:53.633Z,20.67
2023-01-19T14:50:26.004Z,27.10
2023-01-19T14:52:57.909Z,22.97
2023-01-19T14:55:35.110Z,22.93
2023-01-19T14:58:03.254Z,19.37
2023-01-19T15:00:31.359Z,22.37
2023-01-19T15:02:59.447Z,22.77
2023-01-19T15:05:27.417Z,23.20
2023-01-19T15:07:56.535Z,25.43
2023-01-19T15:10:26.065Z,22.67
2023-01-19T15:12:55.995Z,20.00
2023-01-19T15:15:30.522Z,22.43
2023-01-19T15:17:59.488Z,25.03
2023-01-19T15:20:27.580Z,24.57
2023-01-19T15:22:55.712Z,21.90
2023-01-19T15:25:26.954Z,22.80
2023-01-19T15:27:59.781Z,21.73
2023-01-19T15:30:31.164Z,22.17
2023-01-19T15:32:59.241Z,19.87
2023-01-19T15:35:27.263Z,25.10
2023-01-19T15:37:55.457Z,27.30
2023-01-19T15:40:23.580Z,25.77
2023-01-19T15:42:51.793Z,26.10
2023-01-19T15:45:33.218Z,19.13
2023-01-19T15:48:02.640Z,25.87
2023-01-19T15:50:31.247Z,20.33
2023-01-19T15:52:59.409Z,18.50
2023-01-19T15:55:27.683Z,21.43
2023-01-19T15:58:01.438Z,22.83
2023-01-19T16:00:32.923Z,22.43
2023-01-19T16:03:02.913Z,20.77
2023-01-19T16:05:42.637Z,22.50
2023-01-19T16:08:12.083Z,21.27
2023-01-19T16:10:40.292Z,23.63
2023-01-19T16:13:08.500Z,19.70
2023-01-19T16:15:38.901Z,22.93
2023-01-19T16:18:07.785Z,18.77
2023-01-19T16:20:35.827Z,20.63
2023-01-19T16:23:17.545Z,20.37
2023-01-19T16:25:45.652Z,23.73
2023-01-19T16:28:13.716Z,25.50
2023-01-19T16:30:43.276Z,25.57
2023-01-19T16:33:13.832Z,23.57
2023-01-19T16:35:41.848Z,28.57
2023-01-19T16:38:10.429Z,25.47
2023-01-19T16:40:38.490Z,26.03
2023-01-19T16:43:06.451Z,26.57
2023-01-19T16:45:34.432Z,25.40
2023-01-19T16:48:04.159Z,24.20
2023-01-19T16:50:32.246Z,23.80
2023-01-19T16:53:00.391Z,28.03
2023-01-19T16:55:28.419Z,29.43
2023-01-19T16:57:56.787Z,35.17
2023-01-19T17:00:25.064Z,27.67
2023-01-19T17:02:53.252Z,27.07
2023-01-19T17:05:24.179Z,26.83
2023-01-19T17:07:52.272Z,24.20
2023-01-19T17:10:20.513Z,28.47
2023-01-19T17:12:48.576Z,23.60
2023-01-19T17:15:16.979Z,27.23
2023-01-19T17:17:45.073Z,29.20
2023-01-19T17:20:14.045Z,30.37
2023-01-19T17:22:43.747Z,31.30
2023-01-19T17:25:11.798Z,30.00
2023-01-19T17:27:39.846Z,28.07
2023-01-19T17:30:09.029Z,27.87
2023-01-19T17:32:37.258Z,31.23
2023-01-19T17:35:05.859Z,27.20
2023-01-19T17:37:33.833Z,26.93
2023-01-19T17:40:03.536Z,25.30
2023-01-19T17:42:31.654Z,24.67
2023-01-19T17:45:01.570Z,25.83
2023-01-19T17:47:29.584Z,27.40
2023-01-19T17:49:58.430Z,26.37
2023-01-19T17:52:26.442Z,25.00
2023-01-19T17:54:54.934Z,23.57
2023-01-19T17:57:25.135Z,24.10
2023-01-19T17:59:54.185Z,22.07
2023-01-19T18:02:24.600Z,23.30
2023-01-19T18:04:53.770Z,24.70
2023-01-19T18:07:22.694Z,25.63
2023-01-19T18:09:51.749Z,29.77
2023-01-19T18:12:20.438Z,26.23
2023-01-19T18:14:50.963Z,29.90
2023-01-19T18:17:19.452Z,27.30
2023-01-19T18:19:47.550Z,25.23
2023-01-19T18:22:15.835Z,27.03
2023-01-19T18:24:46.007Z,27.33
2023-01-19T18:27:16.384Z,31.03
2023-01-19T18:29:44.648Z,26.17
2023-01-19T18:32:14.527Z,29.77
2023-01-19T18:34:42.642Z,25.73
2023-01-19T18:37:11.609Z,33.87
2023-01-19T18:39:39.681Z,30.73
2023-01-19T18:42:07.876Z,28.50
2023-01-19T18:44:35.967Z,25.00
2023-01-19T18:47:04.007Z,28.73
2023-01-19T18:49:33.611Z,30.17
2023-01-19T18:52:01.769Z,28.83
2023-01-19T18:54:29.824Z,30.43
2023-01-19T18:56:57.959Z,26.10
2023-01-19T18:59:26.254Z,29.00
2023-01-19T19:01:54.434Z,30.93
2023-01-19T19:04:22.591Z,30.63
2023-01-19T19:06:52.236Z,29.93
2023-01-19T19:09:20.714Z,28.20
2023-01-19T19:11:48.782Z,26.53
2023-01-19T19:14:16.797Z,27.43
2023-01-19T19:16:44.926Z,25.53
2023-01-19T19:19:15.457Z,28.83
2023-01-19T19:21:44.772Z,25.60
2023-01-19T19:24:14.167Z,25.07
2023-01-19T19:26:42.486Z,29.00
2023-01-19T19:29:10.536Z,26.10
2023-01-19T19:31:38.560Z,25.00
2023-01-19T19:34:06.591Z,25.87
2023-01-19T19:36:36.348Z,24.80
2023-01-19T19:39:04.873Z,27.53
2023-01-19T19:41:37.118Z,24.90
2023-01-19T19:44:12.768Z,24.53
2023-01-19T19:46:42.056Z,28.57
2023-01-19T19:49:09.968Z,27.67
2023-01-19T19:51:42.301Z,26.20
2023-01-19T19:54:15.924Z,25.20
2023-01-19T19:56:48.908Z,26.10
2023-01-19T19:59:18.013Z,26.13
2023-01-19T20:01:56.026Z,29.07
2023-01-19T20:04:34.922Z,25.80
2023-01-19T20:07:06.435Z,23.50
2023-01-19T20:09:36.792Z,24.70
2023-01-19T20:12:09.849Z,26.70
2023-01-19T20:14:39.834Z,26.77
2023-01-19T20:17:11.148Z,24.23
2023-01-19T20:19:47.576Z,20.37
2023-01-19T20:22:16.293Z,20.23
2023-01-19T20:24:45.854Z,23.87
2023-01-19T20:27:15.705Z,21.27
2023-01-19T20:29:51.508Z,25.70
2023-01-19T20:32:20.025Z,22.83
2023-01-19T20:34:49.113Z,23.30
2023-01-19T20:37:17.513Z,21.57
2023-01-19T20:39:46.120Z,21.10
2023-01-19T20:42:16.655Z,21.23
2023-01-19T20:44:45.767Z,26.60
2023-01-19T20:47:14.106Z,22.00
2023-01-19T20:49:42.175Z,26.13
2023-01-19T20:52:10.233Z,20.37
2023-01-19T20:54:40.007Z,21.47
2023-01-19T20:57:08.006Z,21.60
2023-01-19T20:59:38.357Z,23.37
2023-01-19T21:02:12.374Z,23.13
2023-01-19T21:04:40.502Z,21.53
2023-01-19T21:07:09.111Z,23.87
2023-01-19T21:09:37.488Z,22.77
2023-01-19T21:12:07.934Z,21.63
2023-01-19T21:14:38.466Z,23.97
2023-01-19T21:17:06.445Z,22.17
2023-01-19T21:19:34.419Z,22.07
2023-01-19T21:22:02.386Z,25.40
2023-01-19T21:24:30.770Z,21.57
2023-01-19T21:27:01.137Z,20.73
2023-01-19T21:29:29.168Z,24.63
2023-01-19T21:31:58.640Z,22.77
2023-01-19T21:34:26.705Z,20.93
2023-01-19T21:36:54.739Z,21.70
2023-01-19T21:39:22.957Z,23.53
2023-01-19T21:41:51.016Z,21.60
2023-01-19T21:44:19.098Z,21.07
2023-01-19T21:46:47.132Z,19.60
2023-01-19T21:49:19.110Z,23.00
2023-01-19T21:51:48.117Z,22.83
2023-01-19T21:54:16.273Z,20.57
2023-01-19T21:56:44.400Z,24.80
2023-01-19T21:59:14.769Z,21.67
2023-01-19T22:01:43.944Z,20.87
2023-01-19T22:04:11.970Z,20.30
2023-01-19T22:06:41.513Z,21.80
2023-01-19T22:09:09.704Z,18.57
2023-01-19T22:11:37.713Z,23.13
2023-01-19T22:14:05.726Z,18.23
2023-01-19T22:16:33.978Z,21.20
2023-01-19T22:19:02.697Z,21.63
2023-01-19T22:21:33.054Z,23.23
2023-01-19T22:24:03.855Z,21.50
2023-01-19T22:26:34.136Z,23.73
2023-01-19T22:29:03.437Z,22.73
2023-01-19T22:31:32.152Z,22.07
2023-01-19T22:34:00.446Z,23.03
2023-01-19T22:36:30.737Z,20.93
2023-01-19T22:38:59.911Z,23.30
2023-01-19T22:41:31.593Z,20.03
2023-01-19T22:44:00.958Z,20.50
2023-01-19T22:46:30.690Z,21.70
2023-01-19T22:49:00.245Z,21.07
2023-01-19T22:51:29.733Z,24.67
2023-01-19T22:53:57.984Z,19.43
2023-01-19T22:56:27.400Z,21.43
2023-01-19T22:58:57.386Z,21.47
2023-01-19T23:01:27.393Z,23.33
2023-01-19T23:03:56.562Z,22.40
2023-01-19T23:06:26.756Z,24.37
2023-01-19T23:08:56.155Z,23.97
2023-01-19T23:11:26.439Z,22.07
2023-01-19T23:13:56.370Z,24.63
2023-01-19T23:16:24.371Z,23.53
2023-01-19T23:18:54.514Z,24.30
2023-01-19T23:21:24.494Z,24.90
2023-01-19T23:23:54.759Z,28.30
2023-01-19T23:26:23.745Z,28.93
2023-01-19T23:28:57.438Z,30.27
2023-01-19T23:31:27.445Z,28.83
2023-01-19T23:33:56.853Z,30.20
2023-01-19T23:36:27.068Z,26.40
2023-01-19T23:38:56.617Z,28.77
2023-01-19T23:41:26.145Z,26.10
2023-01-19T23:43:54.181Z,26.40
2023-01-19T23:46:24.027Z,25.93
2023-01-19T23:48:52.165Z,27.60
2023-01-19T23:51:23.696Z,28.20
2023-01-19T23:53:51.935Z,28.53
2023-01-19T23:56:21.788Z,31.13
2023-01-19T23:58:56.582Z,27.57
